createdAt,value
2019-03-29T00:00:09.033Z,54.17
2019-03-29T00:02:37.460Z,54.31
2019-03-29T00:05:04.175Z,54.29
2019-03-29T00:07:39.601Z,54.15
2019-03-29T00:10:00.478Z,54.03
2019-03-29T00:12:27.180Z,54.57
2019-03-29T00:14:53.806Z,54.36
2019-03-29T00:17:20.460Z,53.84
2019-03-29T00:19:47.206Z,54.93
2019-03-29T00:22:14.926Z,55.22
2019-03-29T00:24:41.600Z,54.73
2019-03-29T00:27:08.298Z,55.66
2019-03-29T00:29:34.927Z,55.33
2019-03-29T00:32:01.643Z,55.08
2019-03-29T00:34:28.326Z,54.63
2019-03-29T00:36:55.034Z,55.25
2019-03-29T00:39:21.775Z,55.63
2019-03-29T00:41:48.518Z,55.13
2019-03-29T00:44:15.136Z,55.86
2019-03-29T00:46:41.799Z,55.83
2019-03-29T00:49:08.482Z,55.76
2019-03-29T00:51:35.206Z,55.60
2019-03-29T00:54:02.100Z,55.66
2019-03-29T00:56:29.056Z,56.12
2019-03-29T00:58:55.688Z,56.20
2019-03-29T01:01:22.337Z,56.69
2019-03-29T01:03:49.044Z,56.81
2019-03-29T01:06:15.966Z,56.58
2019-03-29T01:08:42.578Z,57.35
2019-03-29T01:11:09.488Z,57.97
2019-03-29T01:13:36.163Z,58.00
2019-03-29T01:16:02.862Z,57.89
2019-03-29T01:18:29.535Z,57.61
2019-03-29T01:20:56.145Z,57.66
2019-03-29T01:23:24.020Z,57.71
2019-03-29T01:25:50.902Z,57.69
2019-03-29T01:28:17.563Z,58.35
2019-03-29T01:30:44.278Z,58.17
2019-03-29T01:33:10.941Z,57.74
2019-03-29T01:35:37.628Z,57.82
2019-03-29T01:38:04.292Z,57.76
2019-03-29T01:40:31.096Z,58.18
2019-03-29T01:42:57.939Z,58.08
2019-03-29T01:45:24.654Z,57.66
2019-03-29T01:47:51.380Z,58.10
2019-03-29T01:50:18.002Z,58.25
2019-03-29T01:52:45.850Z,57.93
2019-03-29T01:55:12.835Z,58.00
2019-03-29T01:57:39.543Z,58.22
2019-03-29T02:00:07.134Z,58.60
2019-03-29T02:02:33.878Z,58.13
2019-03-29T02:05:01.201Z,58.02
2019-03-29T02:07:28.268Z,58.03
2019-03-29T02:09:54.967Z,58.25
2019-03-29T02:12:21.655Z,58.88
2019-03-29T02:14:49.486Z,58.39
2019-03-29T02:17:16.313Z,58.08
2019-03-29T02:19:42.936Z,58.22
2019-03-29T02:22:09.590Z,58.31
2019-03-29T02:24:36.307Z,58.24
2019-03-29T02:27:03.111Z,58.15
2019-03-29T02:29:29.825Z,57.99
2019-03-29T02:31:57.076Z,58.19
2019-03-29T02:34:23.858Z,58.17
2019-03-29T02:36:51.481Z,58.41
2019-03-29T02:39:18.240Z,58.57
2019-03-29T02:41:46.706Z,59.23
2019-03-29T02:44:14.589Z,59.79
2019-03-29T02:46:41.271Z,59.30
2019-03-29T02:49:07.868Z,60.10
2019-03-29T02:51:34.539Z,59.98
2019-03-29T02:54:01.207Z,59.24
2019-03-29T02:56:27.927Z,58.91
2019-03-29T02:58:54.621Z,59.21
2019-03-29T03:01:21.363Z,59.59
2019-03-29T03:03:47.984Z,59.85
2019-03-29T03:06:14.645Z,60.71
2019-03-29T03:08:41.342Z,60.56
2019-03-29T03:11:08.197Z,60.36
2019-03-29T03:13:34.888Z,60.31
2019-03-29T03:16:01.596Z,60.34
2019-03-29T03:18:28.198Z,59.92
2019-03-29T03:20:54.995Z,60.81
2019-03-29T03:23:21.694Z,60.82
2019-03-29T03:25:48.412Z,61.62
2019-03-29T03:28:16.167Z,62.21
2019-03-29T03:30:42.870Z,62.26
2019-03-29T03:33:09.490Z,62.37
2019-03-29T03:35:37.231Z,62.31
2019-03-29T03:38:03.908Z,61.97
2019-03-29T03:40:30.535Z,62.18
2019-03-29T03:42:58.114Z,62.16
2019-03-29T03:45:24.853Z,61.75
2019-03-29T03:47:51.466Z,62.48
2019-03-29T03:50:41.513Z,63.08
2019-03-29T03:53:09.409Z,62.90
2019-03-29T03:55:40.093Z,62.94
2019-03-29T03:58:07.829Z,63.38
2019-03-29T04:00:53.338Z,63.14
2019-03-29T04:03:21.335Z,63.27
2019-03-29T04:05:48.694Z,63.37
2019-03-29T04:08:15.614Z,63.34
2019-03-29T04:10:42.449Z,63.02
2019-03-29T04:13:09.093Z,62.73
2019-03-29T04:15:35.921Z,62.77
2019-03-29T04:18:02.575Z,63.30
2019-03-29T04:20:29.203Z,63.04
2019-03-29T04:22:55.883Z,62.93
2019-03-29T04:25:22.504Z,63.42
2019-03-29T04:27:49.167Z,63.02
2019-03-29T04:30:15.855Z,62.83
2019-03-29T04:32:42.548Z,63.37
2019-03-29T04:35:09.237Z,63.66
2019-03-29T04:37:35.968Z,63.53
2019-03-29T04:40:08.028Z,63.22
2019-03-29T04:42:32.133Z,62.77
2019-03-29T04:44:59.965Z,62.73
2019-03-29T04:47:26.884Z,62.87
2019-03-29T04:49:54.597Z,62.77
2019-03-29T04:52:21.292Z,62.56
2019-03-29T04:54:47.904Z,63.19
2019-03-29T04:57:14.558Z,63.57
2019-03-29T04:59:41.240Z,63.83
2019-03-29T05:02:07.951Z,63.58
2019-03-29T05:04:34.642Z,64.26
2019-03-29T05:07:01.351Z,64.20
2019-03-29T05:09:27.956Z,64.46
2019-03-29T05:11:54.609Z,64.66
2019-03-29T05:14:21.301Z,64.04
2019-03-29T05:16:47.952Z,64.56
2019-03-29T05:19:14.782Z,64.07
2019-03-29T05:21:41.576Z,64.83
2019-03-29T05:24:08.226Z,63.01
2019-03-29T05:26:34.848Z,62.39
2019-03-29T05:29:01.569Z,63.14
2019-03-29T05:31:28.175Z,63.53
2019-03-29T05:33:55.948Z,63.10
2019-03-29T05:36:22.621Z,62.78
2019-03-29T05:38:49.250Z,61.97
2019-03-29T05:41:15.870Z,61.99
2019-03-29T05:43:42.606Z,62.99
2019-03-29T05:46:09.531Z,63.09
2019-03-29T05:48:36.167Z,62.74
2019-03-29T05:51:02.894Z,63.09
2019-03-29T05:53:29.582Z,62.94
2019-03-29T05:55:56.222Z,63.41
2019-03-29T05:58:22.916Z,63.15
2019-03-29T06:00:49.517Z,63.38
2019-03-29T06:03:16.185Z,63.55
2019-03-29T06:05:42.883Z,62.62
2019-03-29T06:08:09.562Z,63.54
2019-03-29T06:10:48.290Z,63.42
2019-03-29T06:13:05.094Z,63.24
2019-03-29T06:15:31.810Z,62.29
2019-03-29T06:17:58.465Z,62.15
2019-03-29T06:20:25.149Z,62.60
2019-03-29T06:22:51.879Z,59.13
2019-03-29T06:25:18.580Z,58.85
2019-03-29T06:27:46.299Z,59.75
2019-03-29T06:30:16.528Z,55.91
2019-03-29T06:32:43.229Z,55.34
2019-03-29T06:35:09.918Z,56.21
2019-03-29T06:37:39.139Z,56.55
2019-03-29T06:40:09.457Z,57.05
2019-03-29T06:42:36.158Z,56.36
2019-03-29T06:45:04.178Z,56.37
2019-03-29T06:47:30.939Z,55.17
2019-03-29T06:49:57.632Z,55.54
2019-03-29T06:52:24.279Z,54.88
2019-03-29T06:54:50.972Z,54.07
2019-03-29T06:57:17.665Z,53.96
2019-03-29T06:59:45.310Z,53.33
2019-03-29T07:02:11.929Z,52.87
2019-03-29T07:04:38.638Z,53.30
2019-03-29T07:07:05.235Z,53.90
2019-03-29T07:09:31.899Z,53.39
2019-03-29T07:11:58.582Z,51.97
2019-03-29T07:14:25.269Z,51.47
2019-03-29T07:16:51.912Z,51.88
2019-03-29T07:19:18.606Z,52.62
2019-03-29T07:21:45.195Z,53.44
2019-03-29T07:24:11.851Z,53.20
2019-03-29T07:26:38.585Z,52.35
2019-03-29T07:29:05.203Z,51.53
2019-03-29T07:31:31.855Z,51.12
2019-03-29T07:33:58.569Z,51.47
2019-03-29T07:36:25.201Z,49.78
2019-03-29T07:38:51.852Z,50.37
2019-03-29T07:41:30.987Z,50.67
2019-03-29T07:43:47.122Z,48.21
2019-03-29T07:46:13.887Z,45.56
2019-03-29T07:48:40.639Z,46.64
2019-03-29T07:51:07.241Z,46.98
2019-03-29T07:53:33.898Z,46.39
2019-03-29T07:56:00.607Z,45.54
2019-03-29T07:58:27.384Z,46.30
2019-03-29T08:00:54.095Z,43.54
2019-03-29T08:03:21.322Z,44.98
2019-03-29T08:05:48.320Z,43.75
2019-03-29T08:08:24.125Z,46.69
2019-03-29T08:10:43.595Z,47.72
2019-03-29T08:13:10.298Z,45.29
2019-03-29T08:15:36.994Z,45.53
2019-03-29T08:18:03.711Z,44.77
2019-03-29T08:20:41.942Z,46.09
2019-03-29T08:22:58.908Z,45.78
2019-03-29T08:25:25.599Z,47.04
2019-03-29T08:27:52.241Z,47.35
2019-03-29T08:30:18.938Z,48.11
2019-03-29T08:32:45.620Z,48.26
2019-03-29T08:35:12.572Z,46.29
2019-03-29T08:37:39.190Z,46.55
2019-03-29T08:40:06.116Z,46.28
2019-03-29T08:42:32.735Z,47.14
2019-03-29T08:44:59.398Z,57.79
2019-03-29T08:47:26.099Z,46.25
2019-03-29T08:49:52.856Z,48.22
2019-03-29T08:52:19.588Z,46.48
2019-03-29T08:54:46.306Z,47.18
2019-03-29T08:57:12.965Z,45.51
2019-03-29T08:59:39.583Z,46.42
2019-03-29T09:02:06.419Z,45.27
2019-03-29T09:04:33.013Z,46.74
2019-03-29T09:06:59.627Z,44.12
2019-03-29T09:09:28.341Z,45.31
2019-03-29T09:11:54.982Z,42.87
2019-03-29T09:14:21.594Z,44.50
2019-03-29T09:16:48.254Z,44.55
2019-03-29T09:19:14.876Z,43.96
2019-03-29T09:21:42.487Z,44.07
2019-03-29T09:24:21.250Z,45.46
2019-03-29T09:26:37.670Z,44.18
2019-03-29T09:29:04.295Z,45.06
2019-03-29T09:31:30.989Z,44.62
2019-03-29T09:33:58.742Z,43.29
2019-03-29T09:36:25.627Z,44.51
2019-03-29T09:38:52.358Z,44.16
2019-03-29T09:41:19.067Z,41.72
2019-03-29T09:43:45.742Z,43.40
2019-03-29T09:46:12.433Z,43.18
2019-03-29T09:48:39.105Z,44.29
2019-03-29T09:51:05.800Z,42.46
2019-03-29T09:53:32.522Z,42.54
2019-03-29T09:55:59.113Z,42.61
2019-03-29T09:58:25.779Z,43.19
2019-03-29T10:00:52.462Z,43.60
2019-03-29T10:03:19.105Z,44.41
2019-03-29T10:05:45.823Z,44.33
2019-03-29T10:08:12.498Z,44.33
2019-03-29T10:10:39.212Z,44.18
2019-03-29T10:13:06.103Z,44.58
2019-03-29T10:15:32.817Z,44.45
2019-03-29T10:17:59.449Z,43.19
2019-03-29T10:20:26.100Z,43.86
2019-03-29T10:22:52.862Z,43.17
2019-03-29T10:25:20.435Z,43.62
2019-03-29T10:27:47.362Z,41.74
2019-03-29T10:30:20.819Z,40.68
2019-03-29T10:32:47.438Z,42.47
2019-03-29T10:35:14.083Z,40.37
2019-03-29T10:37:40.843Z,41.32
2019-03-29T10:40:07.551Z,39.09
2019-03-29T10:42:34.162Z,40.19
2019-03-29T10:45:01.932Z,37.80
2019-03-29T10:47:42.428Z,38.24
2019-03-29T10:49:57.091Z,40.36
2019-03-29T10:52:23.895Z,38.40
2019-03-29T10:54:50.479Z,36.95
2019-03-29T10:57:17.159Z,36.87
2019-03-29T10:59:43.850Z,37.26
2019-03-29T11:02:10.580Z,38.64
2019-03-29T11:04:37.258Z,37.52
2019-03-29T11:07:03.982Z,37.50
2019-03-29T11:09:30.647Z,37.43
2019-03-29T11:11:57.338Z,38.98
2019-03-29T11:14:24.057Z,38.68
2019-03-29T11:16:50.656Z,37.58
2019-03-29T11:19:17.355Z,37.20
2019-03-29T11:21:44.043Z,35.41
2019-03-29T11:24:10.691Z,34.07
2019-03-29T11:26:37.316Z,36.80
2019-03-29T11:29:04.042Z,35.02
2019-03-29T11:31:30.725Z,36.67
2019-03-29T11:33:57.387Z,36.28
2019-03-29T11:36:24.057Z,36.44
2019-03-29T11:38:50.733Z,36.19
2019-03-29T11:41:17.514Z,36.39
2019-03-29T11:43:44.202Z,36.95
2019-03-29T11:46:10.909Z,37.28
2019-03-29T11:48:37.644Z,36.94
2019-03-29T11:51:18.329Z,38.26
2019-03-29T11:53:33.914Z,36.77
2019-03-29T11:56:00.536Z,36.19
2019-03-29T11:58:27.282Z,33.88
2019-03-29T12:00:53.994Z,33.36
2019-03-29T12:03:20.656Z,33.09
2019-03-29T12:05:48.335Z,34.10
2019-03-29T12:08:15.145Z,33.73
2019-03-29T12:10:41.788Z,33.47
2019-03-29T12:13:09.148Z,34.38
2019-03-29T12:15:35.968Z,35.25
2019-03-29T12:18:02.646Z,35.36
2019-03-29T12:20:29.315Z,35.33
2019-03-29T12:22:55.978Z,35.80
2019-03-29T12:25:22.593Z,33.70
2019-03-29T12:27:49.319Z,35.38
2019-03-29T12:30:30.492Z,31.32
2019-03-29T12:32:44.611Z,33.57
2019-03-29T12:35:11.372Z,33.68
2019-03-29T12:37:38.001Z,34.93
2019-03-29T12:40:06.229Z,35.70
2019-03-29T12:42:32.932Z,34.75
2019-03-29T12:44:59.680Z,36.44
2019-03-29T12:47:26.403Z,33.20
2019-03-29T12:49:53.125Z,35.28
2019-03-29T12:52:19.740Z,33.11
2019-03-29T12:54:47.553Z,35.84
2019-03-29T12:57:14.284Z,31.06
2019-03-29T12:59:40.972Z,31.79
2019-03-29T13:02:09.227Z,33.69
2019-03-29T13:04:35.924Z,31.88
2019-03-29T13:07:02.522Z,30.48
2019-03-29T13:09:29.195Z,31.13
2019-03-29T13:11:55.854Z,33.19
2019-03-29T13:14:22.521Z,31.79
2019-03-29T13:16:49.232Z,34.35
2019-03-29T13:19:15.920Z,31.11
2019-03-29T13:21:42.568Z,30.21
2019-03-29T13:24:10.217Z,32.73
2019-03-29T13:26:36.931Z,32.31
2019-03-29T13:29:03.739Z,30.77
2019-03-29T13:31:30.398Z,31.81
2019-03-29T13:33:57.123Z,31.43
2019-03-29T13:36:23.746Z,30.29
2019-03-29T13:38:50.379Z,30.54
2019-03-29T13:41:17.084Z,27.93
2019-03-29T13:43:43.705Z,29.02
2019-03-29T13:46:10.352Z,30.23
2019-03-29T13:48:37.065Z,31.48
2019-03-29T13:51:03.688Z,30.57
2019-03-29T13:53:30.338Z,30.81
2019-03-29T13:55:58.061Z,28.99
2019-03-29T13:58:24.755Z,30.44
2019-03-29T14:00:51.466Z,30.11
2019-03-29T14:03:18.162Z,30.84
2019-03-29T14:05:44.887Z,30.11
2019-03-29T14:08:11.604Z,27.90
2019-03-29T14:10:38.310Z,28.84
2019-03-29T14:13:04.945Z,29.35
2019-03-29T14:15:31.623Z,31.84
2019-03-29T14:17:58.294Z,30.02
2019-03-29T14:20:32.616Z,31.45
2019-03-29T14:23:01.456Z,29.06
2019-03-29T14:25:28.167Z,29.96
2019-03-29T14:27:54.851Z,31.15
2019-03-29T14:30:21.544Z,30.81
2019-03-29T14:32:48.164Z,30.67
2019-03-29T14:35:14.857Z,30.28
2019-03-29T14:37:41.714Z,31.43
2019-03-29T14:40:09.574Z,30.56
2019-03-29T14:42:36.268Z,30.35
2019-03-29T14:45:06.015Z,30.97
2019-03-29T14:47:41.167Z,31.31
2019-03-29T14:50:01.149Z,29.92
2019-03-29T14:52:27.835Z,32.09
2019-03-29T14:54:54.463Z,30.93
2019-03-29T14:57:21.102Z,31.70
2019-03-29T14:59:47.799Z,30.86
2019-03-29T15:02:14.409Z,31.47
2019-03-29T15:04:41.030Z,30.75
2019-03-29T15:07:07.723Z,31.15
2019-03-29T15:09:34.411Z,29.27
2019-03-29T15:12:01.039Z,29.11
2019-03-29T15:14:27.711Z,30.65
2019-03-29T15:16:54.322Z,31.52
2019-03-29T15:19:20.931Z,31.63
2019-03-29T15:21:47.623Z,32.19
2019-03-29T15:24:14.294Z,31.50
2019-03-29T15:26:40.947Z,32.25
2019-03-29T15:29:07.652Z,32.69
2019-03-29T15:31:34.263Z,32.62
2019-03-29T15:34:00.936Z,31.83
2019-03-29T15:36:27.612Z,32.97
2019-03-29T15:38:54.246Z,31.37
2019-03-29T15:41:20.902Z,31.71
2019-03-29T15:43:47.631Z,31.82
2019-03-29T15:46:14.222Z,31.77
2019-03-29T15:48:41.074Z,32.39
2019-03-29T15:51:07.871Z,32.33
2019-03-29T15:53:34.617Z,32.29
2019-03-29T15:56:02.951Z,32.93
2019-03-29T15:58:30.917Z,33.48
2019-03-29T16:00:57.633Z,32.92
2019-03-29T16:03:24.530Z,33.33
2019-03-29T16:05:51.758Z,33.02
2019-03-29T16:08:18.449Z,33.37
2019-03-29T16:10:45.918Z,33.84
2019-03-29T16:13:12.852Z,33.66
2019-03-29T16:15:39.527Z,32.17
2019-03-29T16:18:06.258Z,33.25
2019-03-29T16:20:32.854Z,33.51
2019-03-29T16:22:59.528Z,33.08
2019-03-29T16:25:26.196Z,33.22
2019-03-29T16:27:52.840Z,33.16
2019-03-29T16:30:19.572Z,33.67
2019-03-29T16:32:46.296Z,33.70
2019-03-29T16:35:13.066Z,33.72
2019-03-29T16:37:39.828Z,34.08
2019-03-29T16:40:07.074Z,34.18
2019-03-29T16:42:33.897Z,33.61
2019-03-29T16:45:00.648Z,34.43
2019-03-29T16:47:27.311Z,33.94
2019-03-29T16:49:54.080Z,34.07
2019-03-29T16:52:20.806Z,34.77
2019-03-29T16:54:48.526Z,35.07
2019-03-29T16:57:15.367Z,34.99
2019-03-29T16:59:43.049Z,35.10
2019-03-29T17:02:09.793Z,35.56
2019-03-29T17:04:36.475Z,35.79
2019-03-29T17:07:03.250Z,36.43
2019-03-29T17:09:29.919Z,37.15
2019-03-29T17:11:56.667Z,37.65
2019-03-29T17:14:23.320Z,36.15
2019-03-29T17:16:52.834Z,36.77
2019-03-29T17:19:18.537Z,37.47
2019-03-29T17:21:45.225Z,37.89
2019-03-29T17:24:11.896Z,38.53
2019-03-29T17:26:39.627Z,39.19
2019-03-29T17:29:06.260Z,38.76
2019-03-29T17:31:33.072Z,38.38
2019-03-29T17:33:59.663Z,39.12
2019-03-29T17:36:26.297Z,39.50
2019-03-29T17:38:53.034Z,39.60
2019-03-29T17:41:20.669Z,40.36
2019-03-29T17:43:47.290Z,40.24
2019-03-29T17:46:16.562Z,40.80
2019-03-29T17:48:43.556Z,41.25
2019-03-29T17:51:10.220Z,40.38
2019-03-29T17:53:36.875Z,40.53
2019-03-29T17:56:03.609Z,40.48
2019-03-29T17:58:30.272Z,40.71
2019-03-29T18:00:56.988Z,40.60
2019-03-29T18:03:23.767Z,41.31
2019-03-29T18:05:50.423Z,42.00
2019-03-29T18:08:17.126Z,42.40
2019-03-29T18:10:43.810Z,42.43
2019-03-29T18:13:10.435Z,42.61
2019-03-29T18:15:37.138Z,42.63
2019-03-29T18:18:03.747Z,43.40
2019-03-29T18:20:30.437Z,43.70
2019-03-29T18:22:57.103Z,43.92
2019-03-29T18:25:23.762Z,43.68
2019-03-29T18:27:50.422Z,43.87
2019-03-29T18:30:20.746Z,44.38
2019-03-29T18:32:47.347Z,44.28
2019-03-29T18:35:14.023Z,44.81
2019-03-29T18:37:41.106Z,44.88
2019-03-29T18:40:14.011Z,45.39
2019-03-29T18:42:40.739Z,45.62
2019-03-29T18:45:07.507Z,45.68
2019-03-29T18:47:34.214Z,46.28
2019-03-29T18:50:00.928Z,46.48
2019-03-29T18:52:27.622Z,46.89
2019-03-29T18:54:54.246Z,46.88
2019-03-29T18:57:20.923Z,47.11
2019-03-29T18:59:47.595Z,47.16
2019-03-29T19:02:14.313Z,47.97
2019-03-29T19:04:41.058Z,47.88
2019-03-29T19:07:07.762Z,47.59
2019-03-29T19:09:34.465Z,48.20
2019-03-29T19:12:01.091Z,48.51
2019-03-29T19:14:27.837Z,48.69
2019-03-29T19:16:59.186Z,48.64
2019-03-29T19:19:22.981Z,48.91
2019-03-29T19:21:49.691Z,49.18
2019-03-29T19:24:16.283Z,49.43
2019-03-29T19:26:42.890Z,49.46
2019-03-29T19:29:09.558Z,49.64
2019-03-29T19:31:36.150Z,49.92
2019-03-29T19:34:02.976Z,50.00
2019-03-29T19:36:29.656Z,50.11
2019-03-29T19:38:57.271Z,49.97
2019-03-29T19:41:23.890Z,50.51
2019-03-29T19:43:50.597Z,50.85
2019-03-29T19:46:17.280Z,51.22
2019-03-29T19:48:43.937Z,51.25
2019-03-29T19:51:10.654Z,51.46
2019-03-29T19:53:37.318Z,51.48
2019-03-29T19:56:04.241Z,51.88
2019-03-29T19:58:31.987Z,52.11
2019-03-29T20:00:58.642Z,52.30
2019-03-29T20:03:25.262Z,52.46
2019-03-29T20:05:52.105Z,52.64
2019-03-29T20:08:18.791Z,52.73
2019-03-29T20:10:46.528Z,52.76
2019-03-29T20:13:13.251Z,52.72
2019-03-29T20:15:39.869Z,53.26
2019-03-29T20:18:06.738Z,53.12
2019-03-29T20:20:33.427Z,53.42
2019-03-29T20:23:00.222Z,54.29
2019-03-29T20:25:26.964Z,54.23
2019-03-29T20:27:53.808Z,54.38
2019-03-29T20:30:20.640Z,54.64
2019-03-29T20:32:47.305Z,54.92
2019-03-29T20:35:14.025Z,55.09
2019-03-29T20:37:42.807Z,55.24
2019-03-29T20:40:09.755Z,55.17
2019-03-29T20:42:36.591Z,55.40
2019-03-29T20:45:06.672Z,55.54
2019-03-29T20:47:41.932Z,54.97
2019-03-29T20:50:03.218Z,55.43
2019-03-29T20:52:29.844Z,55.47
2019-03-29T20:54:56.452Z,55.62
2019-03-29T20:57:23.162Z,55.74
2019-03-29T20:59:49.774Z,55.75
2019-03-29T21:02:16.452Z,56.18
2019-03-29T21:04:43.127Z,56.85
2019-03-29T21:07:09.790Z,57.84
2019-03-29T21:09:36.417Z,58.03
2019-03-29T21:12:03.088Z,58.07
2019-03-29T21:14:29.682Z,58.72
2019-03-29T21:16:56.371Z,59.52
2019-03-29T21:19:23.061Z,60.11
2019-03-29T21:21:49.895Z,60.14
2019-03-29T21:24:17.591Z,59.94
2019-03-29T21:26:44.328Z,59.52
2019-03-29T21:29:11.009Z,59.69
2019-03-29T21:31:37.769Z,59.24
2019-03-29T21:34:04.469Z,60.29
2019-03-29T21:36:31.147Z,59.82
2019-03-29T21:38:57.809Z,60.09
2019-03-29T21:41:24.574Z,59.97
2019-03-29T21:43:51.273Z,60.06
2019-03-29T21:46:17.961Z,59.88
2019-03-29T21:48:44.692Z,59.55
2019-03-29T21:51:12.383Z,59.67
2019-03-29T21:53:39.129Z,59.78
2019-03-29T21:56:05.919Z,59.64
2019-03-29T21:58:32.620Z,60.10
2019-03-29T22:00:59.335Z,60.13
2019-03-29T22:03:26.072Z,60.35
2019-03-29T22:05:52.681Z,61.23
2019-03-29T22:08:19.536Z,61.38
2019-03-29T22:10:46.224Z,61.19
2019-03-29T22:13:12.956Z,60.81
2019-03-29T22:15:39.638Z,60.75
2019-03-29T22:18:06.983Z,60.54
2019-03-29T22:20:33.868Z,60.44
2019-03-29T22:23:00.496Z,60.80
2019-03-29T22:25:27.199Z,60.97
2019-03-29T22:27:53.855Z,61.07
2019-03-29T22:30:20.467Z,61.51
2019-03-29T22:32:47.193Z,61.84
2019-03-29T22:35:13.882Z,62.31
2019-03-29T22:37:40.498Z,63.88
2019-03-29T22:40:07.400Z,64.13
2019-03-29T22:42:34.012Z,63.22
2019-03-29T22:45:00.653Z,62.50
2019-03-29T22:47:27.324Z,64.10
2019-03-29T22:49:53.920Z,63.92
2019-03-29T22:52:20.537Z,63.24
2019-03-29T22:54:47.343Z,64.19
2019-03-29T22:57:14.024Z,64.35
2019-03-29T22:59:40.764Z,63.02
2019-03-29T23:02:07.803Z,63.32
2019-03-29T23:04:34.446Z,63.24
2019-03-29T23:07:01.186Z,63.16
2019-03-29T23:09:28.741Z,64.21
2019-03-29T23:11:55.283Z,63.78
2019-03-29T23:14:22.019Z,63.25
2019-03-29T23:16:48.871Z,62.98
2019-03-29T23:19:15.494Z,63.67
2019-03-29T23:21:42.236Z,63.52
2019-03-29T23:24:08.916Z,62.98
2019-03-29T23:26:35.541Z,62.48
2019-03-29T23:29:02.355Z,62.40
2019-03-29T23:31:29.094Z,62.56
2019-03-29T23:33:55.827Z,62.88
2019-03-29T23:36:22.578Z,62.68
2019-03-29T23:38:50.438Z,62.55
2019-03-29T23:41:17.037Z,63.07
2019-03-29T23:43:43.817Z,64.21
2019-03-29T23:46:10.557Z,63.67
2019-03-29T23:48:37.292Z,63.60
2019-03-29T23:51:04.035Z,63.31
2019-03-29T23:53:30.756Z,63.18
2019-03-29T23:55:57.377Z,63.35
2019-03-29T23:58:24.043Z,64.38
